| time (UTC) | temp C | wind direction | speed KPH | gust KPH | rain 1hr cm | rain 24hr cm | rain mn cm | humidity % | barometer mb |
| 20260507115519 | 10 | 1.6 | 3.2 | 0.00 | 1.50 | 0.61 | 90 | 1012.7 | |
| 20260507114504 | 10 | 1.6 | 3.2 | 0.00 | 1.50 | 0.61 | 90 | 1012.8 | |
| 20260507113519 | 10 | 1.6 | 3.2 | 0.00 | 1.50 | 0.61 | 90 | 1012.8 | |
| 20260507112601 | 9 | 1.6 | 3.2 | 0.00 | 1.50 | 0.61 | 89 | 1012.7 | |
| 20260507111516 | 10 | 1.6 | 3.2 | 0.00 | 1.50 | 0.61 | 91 | 1012.8 | |
| 20260507110517 | 10 | 1.6 | 3.2 | 0.00 | 1.50 | 0.61 | 91 | 1012.7 | |
| 20260507105517 | 10 | 1.6 | 3.2 | 0.00 | 1.50 | 0.61 | 90 | 1012.6 | |
| 20260507104505 | 10 | 1.6 | 3.2 | 0.00 | 1.50 | 0.61 | 89 | 1012.4 | |
| 20260507103517 | 10 | 1.6 | 3.2 | 0.00 | 1.50 | 0.61 | 92 | 1012.3 | |
| 20260507102517 | 10 | 1.6 | 3.2 | 0.00 | 1.50 | 0.61 | 96 | 1012.1 | |
| 20260507101517 | 10 | 1.6 | 3.2 | 0.00 | 1.50 | 0.61 | 97 | 1012.0 | |
| 20260507100519 | 10 | 1.6 | 3.2 | 0.00 | 1.50 | 0.61 | 97 | 1011.9 | |
| 20260507095519 | 10 | 1.6 | 3.2 | 0.00 | 1.50 | 0.61 | 97 | 1012.0 | |
| 20260507094538 | 10 | 1.6 | 3.2 | 0.00 | 1.50 | 0.61 | 96 | 1011.9 | |
| 20260507093518 | 10 | 1.6 | 3.2 | 0.00 | 1.50 | 0.61 | 96 | 1011.8 | |
| 20260507092519 | 10 | 1.6 | 3.2 | 0.00 | 1.50 | 0.61 | 96 | 1011.8 | |
| 20260507091518 | 11 | 1.6 | 3.2 | 0.00 | 1.50 | 0.61 | 95 | 1011.9 | |
| 20260507090519 | 11 | 1.6 | 3.2 | 0.00 | 1.50 | 0.61 | 95 | 1011.9 | |
| 20260507085519 | 11 | 1.6 | 1.6 | 0.00 | 1.50 | 0.61 | 95 | 1011.7 | |
| 20260507084536 | 11 | 1.6 | 6.4 | 0.00 | 1.50 | 0.61 | 95 | 1011.6 | |
| 20260507083539 | 11 | 1.6 | 3.2 | 0.00 | 1.50 | 0.61 | 95 | 1011.6 | |
| 20260507082519 | 11 | 1.6 | 3.2 | 0.00 | 1.50 | 0.61 | 96 | 1011.4 | |
| 20260507081521 | 11 | 1.6 | 1.6 | 0.00 | 1.50 | 0.61 | 96 | 1011.2 | |
| 20260507080518 | 11 | 8.0 | 14.5 | 0.00 | 1.50 | 0.61 | 96 | 1011.1 | |
| 20260507075518 | 11 | 11.3 | 16.1 | 0.03 | 1.50 | 0.61 | 96 | 1011.1 | |
| 20260507074517 | 11 | 4.8 | 12.9 | 0.03 | 1.50 | 0.61 | 96 | 1011.1 | |
| 20260507073520 | 11 | 8.0 | 14.5 | 0.03 | 1.50 | 0.61 | 96 | 1011.2 | |
| 20260507072517 | 11 | 9.7 | 16.1 | 0.03 | 1.50 | 0.61 | 96 | 1011.1 | |
| 20260507071518 | 11 | 3.2 | 11.3 | 0.03 | 1.50 | 0.61 | 96 | 1011.0 | |
| 20260507070519 | 12 | 1.6 | 6.4 | 0.03 | 1.50 | 0.61 | 96 | 1011.0 | |
| 20260507065518 | 12 | 1.6 | 4.8 | 0.00 | 1.47 | 0.61 | 96 | 1011.3 | |
| 20260507064518 | 12 | 3.2 | 4.8 | 0.00 | 1.47 | 0.58 | 96 | 1011.4 | |
| 20260507063519 | 12 | 3.2 | 4.8 | 0.00 | 1.47 | 0.58 | 96 | 1011.3 | |
| 20260507062519 | 12 | 1.6 | 3.2 | 0.00 | 1.47 | 0.58 | 96 | 1011.0 | |
| 20260507061519 | 12 | 3.2 | 3.2 | 0.00 | 1.47 | 0.58 | 97 | 1011.2 | |
| 20260507060517 | 12 | 3.2 | 3.2 | 0.00 | 1.47 | 0.58 | 97 | 1011.4 | |
| 20260507055517 | 12 | 1.6 | 3.2 | 0.03 | 1.47 | 0.58 | 97 | 1011.2 | |
| 20260507054517 | 12 | 1.6 | 1.6 | 0.03 | 1.47 | 0.58 | 97 | 1011.3 | |
| 20260507053520 | 12 | 1.6 | 1.6 | 0.36 | 1.47 | 0.58 | 97 | 1011.2 | |
| 20260507052517 | 12 | 1.6 | 1.6 | 0.53 | 1.47 | 0.58 | 96 | 1011.4 | |
| 20260507051517 | 12 | 1.6 | 3.2 | 0.53 | 1.47 | 0.58 | 96 | 1011.4 | |
| 20260507050518 | 12 | 1.6 | 3.2 | 0.53 | 1.47 | 0.58 | 96 | 1010.9 | |
| 20260507045538 | 13 | 1.6 | 6.4 | 0.58 | 1.45 | 0.58 | 96 | 1011.4 | |
| 20260507044538 | 13 | 3.2 | 9.7 | 0.58 | 1.45 | 0.56 | 95 | 1011.6 | |
| 20260507043516 | 13 | 3.2 | 37.0 | 0.28 | 1.12 | 0.23 | 94 | 1011.4 | |
| 20260507042515 | 13 | 1.6 | 3.2 | 0.10 | 0.94 | 0.05 | 94 | 1011.1 | |
| 20260507041515 | 13 | 1.6 | 4.8 | 0.08 | 0.94 | 0.05 | 92 | 1011.2 | |
| 20260507040516 | 14 | 4.8 | 8.0 | 0.08 | 0.94 | 0.05 | 91 | 1011.2 | |
| 20260507035516 | 15 | 6.4 | 12.9 | 0.03 | 0.89 | 0.89 | 87 | 1010.9 | |
| 20260507034513 | 15 | 3.2 | 6.4 | 0.00 | 0.84 | 0.84 | 84 | 1010.8 | |
| 20260507033516 | 15 | 3.2 | 4.8 | 0.00 | 0.84 | 0.84 | 83 | 1010.6 | |
| 20260507032517 | 15 | 1.6 | 6.4 | 0.00 | 0.84 | 0.84 | 82 | 1010.5 | |
| 20260507031519 | 15 | 4.8 | 6.4 | 0.00 | 0.84 | 0.84 | 82 | 1010.6 | |
| 20260507030557 | 15 | 6.4 | 32.2 | 0.00 | 0.84 | 0.84 | 83 | 1010.6 | |
| 20260507025517 | 16 | 3.2 | 6.4 | 0.00 | 0.84 | 0.84 | 84 | 1010.3 | |
| 20260507024534 | 16 | 3.2 | 6.4 | 0.00 | 0.84 | 0.84 | 84 | 1010.2 | |
| 20260507023517 | 16 | 8.0 | 37.0 | 0.00 | 0.84 | 0.84 | 85 | 1010.2 | |
| 20260507022517 | 16 | 6.4 | 14.5 | 0.00 | 0.84 | 0.84 | 87 | 1010.1 | |
| 20260507021517 | 16 | 4.8 | 11.3 | 0.00 | 0.84 | 0.84 | 89 | 1010.1 | |
| 20260507020518 | 16 | 4.8 | 8.0 | 0.00 | 0.84 | 0.84 | 88 | 1010.1 | |
| 20260507015518 | 17 | 6.4 | 38.6 | 0.03 | 0.84 | 0.84 | 89 | 1010.1 | |
| 20260507014536 | 17 | 6.4 | 38.6 | 0.03 | 0.84 | 0.84 | 94 | 1009.7 | |
| 20260507013518 | 17 | 1.6 | 4.8 | 0.03 | 0.84 | 0.84 | 94 | 1010.0 | |
| 20260507012518 | 17 | 1.6 | 4.8 | 0.03 | 0.84 | 0.84 | 93 | 1010.2 | |
| 20260507011519 | 17 | 3.2 | 4.8 | 0.03 | 0.84 | 0.84 | 91 | 1010.2 | |
| 20260507010519 | 17 | 3.2 | 4.8 | 0.03 | 0.84 | 0.84 | 91 | 1010.2 | |
| 20260507005519 | 18 | 3.2 | 6.4 | 0.03 | 0.84 | 0.84 | 89 | 1010.1 | |
| 20260507004536 | 18 | 6.4 | 9.7 | 0.03 | 0.84 | 0.84 | 87 | 1009.9 | |
| 20260507003519 | 18 | 6.4 | 35.4 | 0.00 | 0.81 | 0.81 | 85 | 1009.8 | |
| 20260507002517 | 19 | 3.2 | 6.4 | 0.00 | 0.81 | 0.81 | 86 | 1009.7 | |
| 20260507001517 | 19 | 1.6 | 1.6 | 0.00 | 0.81 | 0.81 | 85 | 1009.3 | |
| 20260507000521 | 19 | 1.6 | 4.8 | 0.00 | 0.81 | 0.81 | 85 | 1009.3 | |
| 20260506235520 | 19 | 4.8 | 6.4 | 0.00 | 0.81 | 0.81 | 85 | 1009.1 | |
| 20260506234537 | 19 | 3.2 | 4.8 | 0.00 | 0.81 | 0.81 | 85 | 1009.0 | |
| 20260506233523 | 19 | 3.2 | 4.8 | 0.00 | 0.81 | 0.81 | 84 | 1008.8 | |
| 20260506232518 | 20 | 3.2 | 4.8 | 0.00 | 0.81 | 0.81 | 84 | 1009.0 | |
| 20260506231544 | 20 | 1.6 | 3.2 | 0.00 | 0.81 | 0.81 | 83 | 1008.6 | |
| 20260506230521 | 20 | 1.6 | 3.2 | 0.00 | 0.81 | 0.81 | 83 | 1008.6 | |
| 20260506225538 | 20 | 1.6 | 3.2 | 0.00 | 0.81 | 0.81 | 82 | 1008.7 | |
| 20260506224520 | 20 | 3.2 | 4.8 | 0.00 | 0.81 | 0.81 | 82 | 1008.6 | |
| 20260506223518 | 20 | 1.6 | 3.2 | 0.00 | 0.81 | 0.81 | 82 | 1008.4 | |
| 20260506222519 | 20 | 1.6 | 4.8 | 0.00 | 0.81 | 0.81 | 82 | 1008.6 | |
| 20260506221519 | 20 | 1.6 | 1.6 | 0.00 | 0.81 | 0.81 | 82 | 1008.8 | |
| 20260506220519 | 20 | 1.6 | 3.2 | 0.00 | 0.81 | 0.81 | 81 | 1008.7 | |
| 20260506215520 | 20 | 1.6 | 4.8 | 0.00 | 0.81 | 0.81 | 81 | 1008.6 | |
| 20260506214519 | 20 | 3.2 | 4.8 | 0.00 | 0.81 | 0.81 | 80 | 1008.7 | |
| 20260506213519 | 20 | 3.2 | 4.8 | 0.00 | 0.81 | 0.81 | 79 | 1008.5 | |
| 20260506212517 | 20 | 3.2 | 4.8 | 0.00 | 0.81 | 0.81 | 79 | 1008.3 | |
| 20260506211520 | 20 | 3.2 | 4.8 | 0.00 | 0.81 | 0.81 | 79 | 1008.3 | |
| 20260506210522 | 20 | 3.2 | 4.8 | 0.00 | 0.81 | 0.81 | 79 | 1008.3 | |
| 20260506205521 | 20 | 3.2 | 4.8 | 0.00 | 0.81 | 0.81 | 79 | 1008.1 | |
| 20260506204527 | 20 | 3.2 | 6.4 | 0.00 | 0.81 | 0.81 | 79 | 1008.1 | |
| 20260506203519 | 20 | 4.8 | 8.0 | 0.00 | 0.81 | 0.81 | 78 | 1007.9 | |
| 20260506202518 | 20 | 3.2 | 6.4 | 0.00 | 0.81 | 0.81 | 79 | 1008.3 | |
| 20260506201527 | 20 | 3.2 | 6.4 | 0.00 | 0.81 | 0.81 | 78 | 1008.2 | |
| 20260506200522 | 20 | 3.2 | 9.7 | 0.00 | 0.81 | 0.81 | 78 | 1008.0 | |
| 20260506195518 | 21 | 6.4 | 12.9 | 0.00 | 0.81 | 0.81 | 77 | 1008.1 | |
| 20260506194518 | 20 | 4.8 | 9.7 | 0.00 | 0.81 | 0.81 | 78 | 1008.2 | |
| 20260506193540 | 20 | 4.8 | 11.3 | 0.00 | 0.81 | 0.81 | 79 | 1008.2 | |
| 20260506192540 | 20 | 4.8 | 14.5 | 0.00 | 0.81 | 0.81 | 79 | 1008.1 | |
| 20260506191519 | 20 | 4.8 | 12.9 | 0.00 | 0.81 | 0.81 | 81 | 1008.3 | |
| 20260506190519 | 20 | 8.0 | 16.1 | 0.00 | 0.81 | 0.81 | 80 | 1008.4 | |
| 20260506185519 | 19 | 4.8 | 14.5 | 0.00 | 0.81 | 0.81 | 82 | 1008.4 | |
| 20260506184519 | 18 | 6.4 | 14.5 | 0.00 | 0.81 | 0.81 | 82 | 1008.6 | |
| 20260506183521 | 18 | 6.4 | 14.5 | 0.00 | 0.81 | 0.81 | 83 | 1008.7 | |
| 20260506182557 | 18 | 6.4 | 14.5 | 0.00 | 0.81 | 0.81 | 83 | 1008.7 | |
| 20260506181523 | 18 | 4.8 | 9.7 | 0.00 | 0.81 | 0.81 | 85 | 1008.8 | |
| 20260506180540 | 18 | 4.8 | 14.5 | 0.00 | 0.81 | 0.81 | 85 | 1008.9 | |
| 20260506175520 | 18 | 3.2 | 8.0 | 0.00 | 0.81 | 0.81 | 86 | 1009.0 | |
| 20260506174526 | 17 | 3.2 | 11.3 | 0.00 | 0.81 | 0.81 | 86 | 1009.0 | |
| 20260506173538 | 17 | 6.4 | 12.9 | 0.00 | 0.81 | 0.81 | 86 | 1008.9 | |
| 20260506172518 | 17 | 4.8 | 6.4 | 0.00 | 0.81 | 0.81 | 87 | 1008.9 | |
| 20260506171544 | 17 | 6.4 | 9.7 | 0.00 | 0.81 | 0.81 | 89 | 1009.0 | |
| 20260506170518 | 17 | 4.8 | 8.0 | 0.00 | 0.81 | 0.81 | 90 | 1009.1 | |
| 20260506165518 | 16 | 6.4 | 9.7 | 0.00 | 0.81 | 0.81 | 91 | 1009.0 | |
| 20260506164519 | 16 | 4.8 | 8.0 | 0.00 | 0.81 | 0.81 | 91 | 1009.1 | |
| 20260506163519 | 16 | 6.4 | 12.9 | 0.00 | 0.81 | 0.81 | 92 | 1009.2 | |
| 20260506162519 | 16 | 4.8 | 11.3 | 0.00 | 0.81 | 0.81 | 93 | 1009.1 | |
| 20260506161519 | 16 | 6.4 | 12.9 | 0.00 | 0.81 | 0.81 | 93 | 1009.2 | |
| 20260506160540 | 16 | 6.4 | 9.7 | 0.00 | 0.81 | 0.81 | 94 | 1009.3 | |
| 20260506155520 | 16 | 6.4 | 16.1 | 0.03 | 0.81 | 0.81 | 94 | 1009.4 | |
| 20260506154520 | 15 | 8.0 | 14.5 | 0.03 | 0.79 | 0.79 | 94 | 1009.1 | |
| 20260506153536 | 15 | 6.4 | 19.3 | 0.08 | 0.79 | 0.79 | 95 | 1009.3 | |
| 20260506152520 | 15 | 4.8 | 11.3 | 0.10 | 0.79 | 0.79 | 95 | 1009.3 | |
| 20260506151601 | 15 | 8.0 | 14.5 | 0.13 | 0.79 | 0.79 | 96 | 1009.5 | |
| 20260506150546 | 15 | 4.8 | 12.9 | 0.18 | 0.79 | 0.79 | 96 | 1009.6 | |
| 20260506145518 | 15 | 8.0 | 19.3 | 0.20 | 0.79 | 0.79 | 96 | 1009.9 | |
| 20260506144518 | 15 | 6.4 | 14.5 | 0.23 | 0.76 | 0.76 | 96 | 1010.1 | |
| 20260506143518 | 15 | 6.4 | 12.9 | 0.25 | 0.74 | 0.74 | 96 | 1010.0 | |
| 20260506142521 | 15 | 8.0 | 16.1 | 0.33 | 0.71 | 0.71 | 96 | 1010.0 | |
| 20260506141525 | 15 | 8.0 | 14.5 | 0.30 | 0.66 | 0.66 | 95 | 1010.0 | |
| 20260506140518 | 15 | 6.4 | 14.5 | 0.28 | 0.61 | 0.61 | 95 | 1009.8 | |
| 20260506135518 | 15 | 6.4 | 12.9 | 0.30 | 0.58 | 0.58 | 95 | 1009.9 | |
| 20260506134520 | 15 | 4.8 | 11.3 | 0.30 | 0.56 | 0.56 | 95 | 1009.9 | |
| 20260506133519 | 15 | 4.8 | 14.5 | 0.25 | 0.46 | 0.46 | 94 | 1010.3 | |
| 20260506132521 | 16 | 4.8 | 16.1 | 0.23 | 0.38 | 0.38 | 94 | 1010.6 | |
| 20260506131542 | 16 | 6.4 | 12.9 | 0.25 | 0.36 | 0.36 | 93 | 1010.3 | |
| 20260506130519 | 16 | 3.2 | 9.7 | 0.28 | 0.33 | 0.33 | 92 | 1010.2 | |
| 20260506125519 | 16 | 4.8 | 9.7 | 0.25 | 0.28 | 0.28 | 91 | 1010.1 | |
| 20260506124520 | 16 | 4.8 | 9.7 | 0.23 | 0.23 | 0.23 | 90 | 1010.0 | |
| 20260506123517 | 16 | 3.2 | 8.0 | 0.20 | 0.20 | 0.20 | 88 | 1009.9 | |
| 20260506122528 | 16 | 4.8 | 9.7 | 0.13 | 0.13 | 0.13 | 86 | 1010.2 | |
| 20260506121605 | 16 | 4.8 | 8.0 | 0.10 | 0.10 | 0.10 | 84 | 1010.5 | |
| 20260506120521 | 17 | 3.2 | 8.0 | 0.08 | 0.08 | 0.08 | 82 | 1010.5 |